Time;durP1;ratioP1;P1;durP2;ratioP2;P2;SDS_P1;SDS_P2;PMS_P1;PMS_P2;Temp;Humidity;BMP_temperature;BMP_pressure;BME280_temperature;BME280_humidity;BME280_pressure;Samples;Min_cycle;Max_cycle;Signal;HPM_P1;HPM_P2
2023/03/06 00:00:35;;;;;;;17.70;10.18;;;5.00;99.90;;;;;;5094966;28;20036;-66
2023/03/06 00:03:01;;;;;;;19.60;10.25;;;5.10;99.90;;;;;;5079284;28;20069;-66
2023/03/06 00:05:27;;;;;;;17.57;10.27;;;5.10;99.90;;;;;;5095160;28;20020;-65
2023/03/06 00:07:52;;;;;;;17.33;10.17;;;5.00;99.90;;;;;;5094032;28;20489;-65
2023/03/06 00:10:21;;;;;;;19.60;10.67;;;4.90;99.90;;;;;;5064679;28;20510;-65
2023/03/06 00:12:47;;;;;;;21.10;10.30;;;5.10;99.90;;;;;;5073871;28;20056;-66
2023/03/06 00:15:13;;;;;;;20.30;10.93;;;5.10;99.90;;;;;;5073899;28;20054;-65
2023/03/06 00:17:39;;;;;;;16.98;10.15;;;5.10;99.90;;;;;;5055937;28;20021;-66
2023/03/06 00:20:06;;;;;;;18.57;10.47;;;5.10;99.90;;;;;;5073347;28;20416;-65
2023/03/06 00:22:31;;;;;;;21.90;11.65;;;5.10;99.90;;;;;;5073382;28;20031;-66
2023/03/06 00:24:57;;;;;;;20.27;10.37;;;5.00;99.90;;;;;;5073806;28;20021;-66
2023/03/06 00:27:25;;;;;;;18.57;10.37;;;5.00;99.90;;;;;;5055633;28;20416;-66
2023/03/06 00:29:57;;;;;;;17.83;10.93;;;5.00;99.90;;;;;;5055463;28;20115;-66
2023/03/06 00:32:24;;;;;;;21.85;10.63;;;5.00;99.90;;;;;;5055669;28;20028;-66
2023/03/06 00:34:54;;;;;;;18.83;11.02;;;5.00;99.90;;;;;;5073431;28;20035;-65
2023/03/06 00:37:21;;;;;;;20.15;10.32;;;4.90;99.90;;;;;;5073453;28;20031;-66
2023/03/06 00:39:48;;;;;;;19.00;10.50;;;4.90;99.90;;;;;;5073182;28;20032;-66
2023/03/06 00:42:14;;;;;;;20.17;9.95;;;4.90;99.90;;;;;;5073501;28;20491;-66
2023/03/06 00:44:40;;;;;;;17.67;10.32;;;4.80;99.90;;;;;;5073367;28;20028;-66
2023/03/06 00:47:06;;;;;;;17.93;10.43;;;4.80;99.90;;;;;;5055332;28;20564;-67
2023/03/06 00:49:31;;;;;;;18.27;10.70;;;4.90;99.90;;;;;;5073185;28;20020;-66
2023/03/06 00:51:57;;;;;;;19.80;10.20;;;5.00;99.90;;;;;;5072637;28;20028;-65
2023/03/06 00:54:23;;;;;;;22.00;10.63;;;5.00;99.90;;;;;;5073388;28;20024;-66
2023/03/06 00:56:48;;;;;;;21.63;11.30;;;5.10;99.90;;;;;;5073712;28;20025;-66
2023/03/06 00:59:14;;;;;;;18.93;10.20;;;5.00;99.90;;;;;;5072893;28;20024;-65
2023/03/06 01:01:39;;;;;;;18.17;10.33;;;5.00;99.90;;;;;;5073553;28;20024;-66
2023/03/06 01:04:05;;;;;;;16.97;10.03;;;4.80;99.90;;;;;;5073308;28;20067;-65
2023/03/06 01:06:30;;;;;;;21.43;10.80;;;4.70;99.90;;;;;;5072965;28;20097;-66
2023/03/06 01:08:56;;;;;;;19.07;10.43;;;4.90;99.90;;;;;;5073259;28;20659;-66
2023/03/06 01:11:22;;;;;;;18.83;11.07;;;4.90;99.90;;;;;;5074086;28;20083;-66
2023/03/06 01:13:47;;;;;;;21.40;10.83;;;4.90;99.90;;;;;;5073588;28;20052;-66
2023/03/06 01:16:15;;;;;;;19.87;10.53;;;5.00;99.90;;;;;;5073802;28;20469;-66
2023/03/06 01:18:41;;;;;;;21.88;10.10;;;4.90;99.90;;;;;;5073350;28;20102;-66
2023/03/06 01:21:07;;;;;;;21.02;10.77;;;4.90;99.90;;;;;;5054682;28;20064;-65
2023/03/06 01:23:33;;;;;;;18.40;9.82;;;4.90;99.90;;;;;;5054423;28;20146;-66
2023/03/06 01:25:59;;;;;;;20.60;10.63;;;4.90;99.90;;;;;;5054656;28;20042;-66
2023/03/06 01:28:25;;;;;;;20.35;10.05;;;4.90;99.90;;;;;;5072741;28;20137;-65
2023/03/06 01:30:50;;;;;;;19.40;11.10;;;4.90;99.90;;;;;;5072713;28;20033;-65
2023/03/06 01:33:16;;;;;;;19.53;10.77;;;4.80;99.90;;;;;;5073115;28;20273;-65
2023/03/06 01:35:41;;;;;;;20.47;10.27;;;4.80;99.90;;;;;;5073945;28;20374;-66
2023/03/06 01:38:07;;;;;;;21.67;11.40;;;4.80;99.90;;;;;;5076768;28;20028;-67
2023/03/06 01:40:34;;;;;;;19.92;10.85;;;4.90;99.90;;;;;;5076730;28;20032;-67
2023/03/06 01:43:34;;;;;;;20.30;10.55;;;4.70;99.90;;;;;;5075567;28;20025;-66
2023/03/06 01:46:27;;;;;;;22.90;11.10;;;4.90;99.90;;;;;;5044747;28;20104;-65
2023/03/06 01:49:24;;;;;;;21.55;11.27;;;4.90;99.90;;;;;;5072768;28;20108;-66
2023/03/06 01:52:05;;;;;;;24.85;10.68;;;4.90;99.90;;;;;;5041210;28;20431;-66
2023/03/06 01:54:36;;;;;;;21.58;10.50;;;4.80;99.90;;;;;;5073709;28;20116;-66
2023/03/06 01:57:35;;;;;;;24.30;12.77;;;4.80;99.90;;;;;;5076631;28;20096;-63
2023/03/06 02:00:22;;;;;;;23.02;11.60;;;4.80;99.90;;;;;;5077075;28;20029;-66
2023/03/06 02:02:55;;;;;;;21.33;10.65;;;4.80;99.90;;;;;;5057666;28;20035;-65
2023/03/06 02:05:21;;;;;;;21.00;11.07;;;4.80;99.90;;;;;;5076624;28;20485;-65
2023/03/06 02:07:47;;;;;;;19.17;10.65;;;4.80;99.90;;;;;;5076570;28;20057;-65
2023/03/06 02:10:14;;;;;;;19.08;10.98;;;4.80;99.90;;;;;;5077988;28;20063;-65
2023/03/06 02:12:42;;;;;;;20.50;10.30;;;4.70;99.90;;;;;;5078122;28;20084;-66
2023/03/06 02:15:09;;;;;;;22.88;10.00;;;4.70;99.90;;;;;;5079127;28;20501;-65
2023/03/06 02:17:35;;;;;;;19.35;10.50;;;4.70;99.90;;;;;;5078402;28;20029;-65
2023/03/06 02:20:16;;;;;;;19.25;10.07;;;4.70;99.90;;;;;;5077124;28;20020;-64
2023/03/06 02:22:48;;;;;;;26.17;10.93;;;4.80;99.90;;;;;;5076204;28;20450;-66
2023/03/06 02:25:38;;;;;;;23.67;10.70;;;4.80;99.90;;;;;;5058228;28;20016;-66
2023/03/06 02:28:07;;;;;;;20.40;10.82;;;4.70;99.90;;;;;;5076459;28;20030;-66
2023/03/06 02:30:32;;;;;;;22.70;11.13;;;4.70;99.90;;;;;;5076240;28;20082;-65
2023/03/06 02:32:58;;;;;;;23.57;11.67;;;4.70;99.90;;;;;;5058330;28;20104;-65
2023/03/06 02:35:27;;;;;;;24.93;11.70;;;4.70;99.90;;;;;;5076718;28;20021;-66
2023/03/06 02:37:55;;;;;;;21.13;10.93;;;4.60;99.90;;;;;;5075974;28;20339;-65
2023/03/06 02:40:22;;;;;;;22.15;11.38;;;4.70;99.90;;;;;;5075820;28;20091;-65
2023/03/06 02:42:51;;;;;;;21.17;11.02;;;4.70;99.90;;;;;;5075813;28;20230;-66
2023/03/06 02:45:22;;;;;;;24.80;12.75;;;4.70;99.90;;;;;;5057422;28;20028;-65
2023/03/06 02:47:48;;;;;;;25.92;11.93;;;4.70;99.90;;;;;;5075555;28;20409;-66
2023/03/06 02:50:13;;;;;;;21.87;11.80;;;4.80;99.90;;;;;;5075346;28;20017;-66
2023/03/06 02:52:39;;;;;;;21.77;10.93;;;4.70;99.90;;;;;;5075155;28;20029;-66
2023/03/06 02:55:04;;;;;;;23.00;11.97;;;4.70;99.90;;;;;;5075636;28;20562;-66
2023/03/06 02:57:30;;;;;;;22.50;11.10;;;4.60;99.90;;;;;;5075240;28;20039;-66
2023/03/06 02:59:55;;;;;;;21.23;11.27;;;4.60;99.90;;;;;;5075187;28;20035;-66
2023/03/06 03:02:21;;;;;;;23.10;11.80;;;4.70;99.90;;;;;;5075878;28;20036;-67
2023/03/06 03:04:46;;;;;;;23.93;11.70;;;4.70;99.90;;;;;;5077031;28;20032;-66
2023/03/06 03:07:12;;;;;;;22.40;11.40;;;4.60;99.90;;;;;;5076601;28;20109;-66
2023/03/06 03:09:37;;;;;;;22.07;11.47;;;4.60;99.90;;;;;;5057097;28;20024;-65
2023/03/06 03:12:05;;;;;;;25.03;12.77;;;4.50;99.90;;;;;;5074943;28;20033;-66
2023/03/06 03:14:31;;;;;;;23.08;12.52;;;4.50;99.90;;;;;;5075047;28;20029;-66
2023/03/06 03:16:57;;;;;;;25.80;12.00;;;4.60;99.90;;;;;;5074847;28;20025;-66
2023/03/06 03:19:23;;;;;;;;;;;4.70;99.90;;;;;;5075293;28;20028;-66
2023/03/06 03:21:48;;;;;;;22.45;11.38;;;4.60;99.90;;;;;;5056264;28;19912;-66
2023/03/06 03:24:15;;;;;;;23.53;12.20;;;4.50;99.90;;;;;;5074617;28;20024;-66
2023/03/06 03:26:41;;;;;;;23.23;11.90;;;4.50;99.90;;;;;;5056667;28;20024;-66
2023/03/06 03:29:07;;;;;;;24.00;12.20;;;4.50;99.90;;;;;;5056684;28;20017;-65
2023/03/06 03:31:33;;;;;;;21.27;11.50;;;4.50;99.90;;;;;;5074706;28;20063;-66
2023/03/06 03:33:59;;;;;;;29.00;12.67;;;4.60;99.90;;;;;;5074952;28;20057;-65
2023/03/06 03:36:26;;;;;;;23.65;13.10;;;4.70;99.90;;;;;;5074802;28;20039;-65
2023/03/06 03:38:51;;;;;;;28.52;13.73;;;4.60;99.90;;;;;;5074399;28;20086;-65
2023/03/06 03:41:17;;;;;;;22.90;12.30;;;4.60;99.90;;;;;;5056162;28;20029;-65
2023/03/06 03:43:43;;;;;;;24.90;12.70;;;4.50;99.90;;;;;;5074172;28;20064;-65
2023/03/06 03:46:08;;;;;;;26.97;12.80;;;4.40;99.90;;;;;;5074247;28;20021;-66
2023/03/06 03:48:34;;;;;;;22.83;11.85;;;4.50;99.90;;;;;;5074240;28;20118;-65
2023/03/06 03:51:11;;;;;;;26.60;14.10;;;4.50;99.90;;;;;;5056437;28;20040;-66
2023/03/06 03:53:37;;;;;;;27.92;12.90;;;4.50;99.90;;;;;;5073715;28;20031;-65
2023/03/06 03:56:03;;;;;;;27.90;13.30;;;4.40;99.90;;;;;;5073976;28;20029;-65
2023/03/06 03:58:29;;;;;;;26.20;13.05;;;4.30;99.90;;;;;;5073943;28;20265;-66
2023/03/06 04:00:54;;;;;;;24.43;13.20;;;4.40;99.90;;;;;;5077270;28;20392;-66
2023/03/06 04:03:20;;;;;;;27.67;13.30;;;4.60;99.90;;;;;;5076232;28;20078;-66
2023/03/06 04:05:46;;;;;;;26.30;12.47;;;4.60;99.90;;;;;;5073899;28;20021;-64
2023/03/06 04:08:11;;;;;;;24.87;12.57;;;4.60;99.90;;;;;;5073639;28;20020;-66
2023/03/06 04:10:38;;;;;;;25.00;11.30;;;4.50;99.90;;;;;;5073969;28;20040;-65
2023/03/06 04:13:04;;;;;;;24.45;12.43;;;4.50;99.90;;;;;;5073897;28;20016;-65
2023/03/06 04:15:30;;;;;;;26.05;12.38;;;4.50;99.90;;;;;;5073713;28;20016;-65
2023/03/06 04:17:56;;;;;;;25.38;12.50;;;4.50;99.90;;;;;;5073554;28;20101;-65
2023/03/06 04:20:22;;;;;;;27.08;12.25;;;4.50;99.90;;;;;;5055309;28;20115;-65
2023/03/06 04:22:48;;;;;;;25.40;12.53;;;4.40;99.90;;;;;;5073263;28;20044;-65
2023/03/06 04:25:13;;;;;;;24.10;12.13;;;4.40;99.90;;;;;;5073784;28;20282;-66
2023/03/06 04:27:39;;;;;;;24.27;11.87;;;4.40;99.90;;;;;;5072853;28;20036;-65
2023/03/06 04:30:06;;;;;;;27.23;13.73;;;4.30;99.90;;;;;;5073488;28;20025;-65
2023/03/06 04:32:32;;;;;;;23.85;12.38;;;4.30;99.90;;;;;;5073270;28;20443;-66
2023/03/06 04:34:57;;;;;;;23.97;12.60;;;4.30;99.90;;;;;;5073815;28;20121;-65
2023/03/06 04:37:26;;;;;;;26.63;12.37;;;4.40;99.90;;;;;;5087608;28;20059;-66
2023/03/06 04:39:51;;;;;;;25.30;12.80;;;4.40;99.90;;;;;;5093555;28;20036;-66
2023/03/06 04:42:17;;;;;;;22.73;12.40;;;4.40;99.90;;;;;;5093802;28;20050;-66
2023/03/06 04:44:43;;;;;;;25.85;12.45;;;4.40;99.90;;;;;;5093456;28;20028;-65
2023/03/06 04:47:09;;;;;;;21.30;12.47;;;4.40;99.90;;;;;;5093288;28;20082;-65
2023/03/06 04:49:35;;;;;;;26.73;12.20;;;4.40;99.90;;;;;;5075088;28;20265;-66
2023/03/06 04:52:01;;;;;;;25.13;13.00;;;4.40;99.90;;;;;;5092811;28;20032;-67
2023/03/06 04:54:27;;;;;;;25.67;13.33;;;4.50;99.90;;;;;;5075037;28;20081;-66
2023/03/06 04:56:52;;;;;;;25.33;13.33;;;4.40;99.90;;;;;;5093785;28;20090;-67
2023/03/06 04:59:18;;;;;;;24.43;12.77;;;4.50;99.90;;;;;;5076834;28;20064;-65
2023/03/06 05:01:43;;;;;;;23.80;11.80;;;4.30;99.90;;;;;;5094347;28;20032;-66
2023/03/06 05:04:09;;;;;;;23.57;11.90;;;4.40;99.90;;;;;;5093759;28;20031;-65
2023/03/06 05:06:34;;;;;;;25.80;12.73;;;4.30;99.90;;;;;;5093226;28;20559;-65
2023/03/06 05:09:00;;;;;;;27.57;13.00;;;4.30;99.90;;;;;;5092991;28;20032;-65
2023/03/06 05:11:25;;;;;;;28.47;13.20;;;4.30;99.90;;;;;;5073404;28;20025;-64
2023/03/06 05:13:51;;;;;;;25.20;12.83;;;4.40;99.90;;;;;;5073126;28;20205;-64
2023/03/06 05:16:16;;;;;;;29.30;13.17;;;4.30;99.90;;;;;;5078656;28;20052;-65
2023/03/06 05:18:42;;;;;;;26.57;13.47;;;4.30;99.90;;;;;;5080509;28;20047;-69
2023/03/06 05:21:08;;;;;;;29.53;13.00;;;4.30;99.90;;;;;;5058193;28;20477;-66
2023/03/06 05:23:35;;;;;;;31.37;13.90;;;4.40;99.90;;;;;;5076749;28;20484;-67
2023/03/06 05:26:05;;;;;;;28.27;14.73;;;4.30;99.90;;;;;;5093716;28;20049;-66
2023/03/06 05:28:31;;;;;;;27.83;13.52;;;4.30;99.90;;;;;;5090811;28;20017;-66
2023/03/06 05:30:57;;;;;;;28.53;13.90;;;4.30;99.90;;;;;;5082899;28;20126;-65
2023/03/06 05:33:22;;;;;;;28.37;13.67;;;4.30;99.90;;;;;;5090866;28;20206;-65
2023/03/06 05:35:48;;;;;;;30.77;13.80;;;4.40;99.90;;;;;;5083937;28;20039;-67
2023/03/06 05:38:15;;;;;;;30.52;13.00;;;4.40;99.90;;;;;;5081539;28;20020;-66
2023/03/06 05:40:42;;;;;;;31.75;14.88;;;4.30;99.90;;;;;;5096306;28;20036;-66
2023/03/06 05:43:09;;;;;;;26.73;13.63;;;4.30;99.90;;;;;;5089037;28;20024;-66
2023/03/06 05:45:35;;;;;;;24.88;12.43;;;4.30;99.90;;;;;;5080707;28;20039;-67
2023/03/06 05:48:00;;;;;;;28.00;13.73;;;4.30;99.90;;;;;;5090293;28;20087;-66
2023/03/06 05:50:26;;;;;;;25.80;12.40;;;4.40;99.90;;;;;;5099310;28;20017;-66
2023/03/06 05:52:51;;;;;;;24.45;12.98;;;4.30;99.90;;;;;;5099040;28;20107;-66
2023/03/06 05:55:19;;;;;;;28.33;13.20;;;4.30;99.90;;;;;;5098782;28;20028;-66
2023/03/06 05:57:45;;;;;;;23.95;13.25;;;4.30;99.90;;;;;;5098110;28;20085;-66
2023/03/06 06:00:13;;;;;;;29.03;14.47;;;4.30;99.90;;;;;;5097785;28;20028;-66
2023/03/06 06:02:39;;;;;;;30.63;13.32;;;4.20;99.90;;;;;;5096891;28;20492;-66
2023/03/06 06:05:05;;;;;;;26.23;14.25;;;4.30;99.90;;;;;;5097289;28;20024;-65
2023/03/06 06:07:31;;;;;;;28.30;14.63;;;4.40;99.90;;;;;;5097177;28;20027;-70
2023/03/06 06:09:57;;;;;;;25.80;13.97;;;4.30;99.90;;;;;;5089446;28;20071;-70
2023/03/06 06:12:22;;;;;;;31.10;14.13;;;4.20;99.90;;;;;;5076072;28;20032;-67
2023/03/06 06:14:48;;;;;;;30.67;13.80;;;4.20;99.90;;;;;;5076386;28;20025;-67
2023/03/06 06:17:15;;;;;;;25.97;13.23;;;4.20;99.90;;;;;;5077408;28;20314;-68
2023/03/06 06:19:41;;;;;;;31.27;14.07;;;4.40;99.90;;;;;;5076666;28;20104;-68
2023/03/06 06:22:06;;;;;;;25.33;13.13;;;4.40;99.90;;;;;;5076899;28;20119;-67
2023/03/06 06:24:32;;;;;;;27.63;14.70;;;4.40;99.90;;;;;;5075910;28;20099;-68
2023/03/06 06:26:58;;;;;;;30.67;14.53;;;4.50;99.90;;;;;;5057991;28;20404;-67
2023/03/06 06:29:25;;;;;;;28.73;13.35;;;4.40;99.90;;;;;;5057472;28;20024;-63
2023/03/06 06:31:52;;;;;;;27.10;13.23;;;4.50;99.90;;;;;;5074781;28;20107;-63
2023/03/06 06:34:18;;;;;;;24.92;12.65;;;4.50;99.90;;;;;;5074883;28;20025;-63
2023/03/06 06:36:44;;;;;;;31.02;14.35;;;4.50;99.90;;;;;;5075680;28;20021;-67
2023/03/06 06:39:12;;;;;;;27.20;13.30;;;4.50;99.90;;;;;;5075635;28;20128;-66
2023/03/06 06:41:37;;;;;;;27.33;13.60;;;4.50;99.90;;;;;;5095718;28;20028;-66
2023/03/06 06:44:10;;;;;;;30.10;14.43;;;4.50;99.90;;;;;;5095771;28;20115;-67
2023/03/06 06:46:36;;;;;;;30.75;14.38;;;4.50;99.90;;;;;;5096306;28;20055;-67
2023/03/06 06:49:02;;;;;;;31.40;15.55;;;4.50;99.90;;;;;;5086488;28;20107;-67
2023/03/06 06:51:32;;;;;;;30.30;15.48;;;4.50;99.90;;;;;;5080613;28;20522;-67
2023/03/06 06:53:58;;;;;;;30.08;15.10;;;4.40;99.90;;;;;;5075234;28;20020;-67
2023/03/06 06:56:24;;;;;;;34.17;15.05;;;4.40;99.90;;;;;;5083486;28;20040;-68
2023/03/06 06:58:55;;;;;;;33.15;15.35;;;4.40;99.90;;;;;;5075403;28;20028;-69
2023/03/06 07:01:21;;;;;;;32.10;15.93;;;4.50;99.90;;;;;;5077114;28;20383;-68
2023/03/06 07:03:46;;;;;;;32.80;14.98;;;4.40;99.90;;;;;;5095148;28;20065;-68
2023/03/06 07:06:12;;;;;;;30.33;14.50;;;4.50;99.90;;;;;;5077529;28;20062;-69
2023/03/06 07:08:38;;;;;;;30.23;14.97;;;4.40;99.90;;;;;;5095591;28;20073;-69
2023/03/06 07:11:09;;;;;;;31.67;15.07;;;4.40;99.90;;;;;;5095464;28;20057;-69
2023/03/06 07:13:35;;;;;;;30.65;15.45;;;4.40;99.90;;;;;;5095417;28;20020;-68
2023/03/06 07:16:01;;;;;;;27.60;15.17;;;4.50;99.90;;;;;;5095342;28;20133;-69
2023/03/06 07:18:26;;;;;;;29.63;15.45;;;4.50;99.90;;;;;;5095198;28;20296;-68
2023/03/06 07:20:53;;;;;;;30.77;14.93;;;4.50;99.90;;;;;;5095105;28;20059;-68
2023/03/06 07:23:18;;;;;;;;;;;4.50;99.90;;;;;;5077315;28;20020;-69
2023/03/06 07:25:44;;;;;;;32.45;15.25;;;4.50;99.90;;;;;;5077093;28;19903;-67
2023/03/06 07:28:10;;;;;;;32.00;16.03;;;4.50;99.90;;;;;;5095058;28;20031;-68
2023/03/06 07:30:35;;;;;;;33.97;16.23;;;4.40;99.90;;;;;;5095047;28;20258;-68
2023/03/06 07:33:01;;;;;;;32.73;16.80;;;4.50;99.90;;;;;;5077564;28;20065;-69
2023/03/06 07:35:27;;;;;;;33.00;15.30;;;4.60;99.90;;;;;;5095398;28;20024;-69
2023/03/06 07:37:52;;;;;;;31.02;15.82;;;4.60;99.90;;;;;;5076971;28;20024;-69
2023/03/06 07:40:19;;;;;;;30.45;15.57;;;4.60;99.90;;;;;;5086444;28;20066;-69
2023/03/06 07:42:45;;;;;;;30.73;15.65;;;4.70;99.90;;;;;;5076739;28;20024;-70
2023/03/06 07:45:11;;;;;;;33.00;15.43;;;4.70;99.90;;;;;;5079683;28;20025;-69
2023/03/06 07:47:38;;;;;;;32.22;15.38;;;4.60;99.90;;;;;;5079434;28;20416;-68
2023/03/06 07:50:06;;;;;;;28.00;14.60;;;4.60;99.90;;;;;;5061424;28;20025;-68
2023/03/06 07:52:32;;;;;;;29.88;15.15;;;4.70;99.90;;;;;;5061153;28;20497;-68
2023/03/06 07:54:58;;;;;;;32.63;14.18;;;4.60;99.90;;;;;;5079107;28;20029;-68
2023/03/06 07:57:23;;;;;;;30.37;14.00;;;4.60;99.90;;;;;;5079476;28;20039;-69
2023/03/06 07:59:49;;;;;;;28.57;13.60;;;4.70;99.90;;;;;;5080420;28;20021;-69
2023/03/06 08:02:14;;;;;;;23.87;12.93;;;4.60;99.90;;;;;;5059189;28;20029;-69
2023/03/06 08:04:41;;;;;;;28.90;13.90;;;4.50;99.90;;;;;;5078802;28;20104;-69
2023/03/06 08:07:06;;;;;;;26.42;13.57;;;4.50;99.90;;;;;;5061101;28;20027;-69
2023/03/06 08:09:33;;;;;;;25.73;13.70;;;4.60;99.90;;;;;;5063539;28;20024;-68
2023/03/06 08:11:59;;;;;;;26.55;13.45;;;4.60;99.90;;;;;;5098182;28;20024;-68
2023/03/06 08:14:25;;;;;;;29.55;13.30;;;4.60;99.90;;;;;;5080534;28;20085;-69
2023/03/06 08:16:53;;;;;;;25.03;12.97;;;4.70;99.90;;;;;;5080566;28;20032;-69
2023/03/06 08:19:19;;;;;;;24.27;13.00;;;4.60;99.90;;;;;;5095807;28;20024;-69
2023/03/06 08:21:44;;;;;;;25.37;13.17;;;4.60;99.90;;;;;;5095699;28;20165;-69
2023/03/06 08:24:12;;;;;;;28.17;13.13;;;4.60;99.90;;;;;;5096988;28;20031;-69
2023/03/06 08:26:37;;;;;;;24.95;12.43;;;4.70;99.90;;;;;;5097844;28;20503;-69
2023/03/06 08:29:04;;;;;;;22.33;12.47;;;4.70;99.90;;;;;;5098410;28;20028;-69
2023/03/06 08:31:33;;;;;;;26.25;13.00;;;4.60;99.90;;;;;;5079369;28;20477;-68
2023/03/06 08:34:05;;;;;;;26.50;12.63;;;4.50;99.90;;;;;;5098443;28;20028;-69
2023/03/06 08:36:31;;;;;;;23.23;11.52;;;4.40;99.90;;;;;;5079953;28;20020;-69
2023/03/06 08:38:57;;;;;;;24.85;12.05;;;4.50;99.90;;;;;;5079085;28;20024;-69
2023/03/06 08:41:22;;;;;;;26.43;12.90;;;4.40;99.90;;;;;;5094484;28;20039;-69
2023/03/06 08:43:49;;;;;;;24.40;13.03;;;4.40;99.90;;;;;;5093961;28;20023;-68
2023/03/06 08:46:14;;;;;;;24.90;11.52;;;4.50;99.90;;;;;;5093685;28;20016;-68
2023/03/06 08:48:40;;;;;;;24.23;12.03;;;4.60;99.90;;;;;;5093467;28;20026;-68
2023/03/06 08:51:08;;;;;;;22.87;12.57;;;4.60;99.90;;;;;;5075268;28;20360;-69
2023/03/06 08:53:34;;;;;;;23.52;12.13;;;4.70;99.90;;;;;;5096633;28;20028;-69
2023/03/06 08:55:59;;;;;;;27.17;13.47;;;4.70;99.90;;;;;;5100706;28;20047;-69
2023/03/06 08:58:25;;;;;;;22.83;12.07;;;4.70;99.90;;;;;;5099627;28;20388;-68
2023/03/06 09:00:50;;;;;;;25.37;13.07;;;4.70;99.90;;;;;;5096915;28;20024;-70
2023/03/06 09:03:16;;;;;;;23.23;12.20;;;4.70;99.90;;;;;;5098093;28;20028;-69
2023/03/06 09:05:42;;;;;;;26.15;12.00;;;4.70;99.90;;;;;;5098109;28;20461;-69
2023/03/06 09:08:08;;;;;;;23.73;12.43;;;4.80;99.90;;;;;;5098818;28;20109;-69
2023/03/06 09:10:33;;;;;;;24.43;12.50;;;4.80;99.90;;;;;;5067996;28;20031;-68
2023/03/06 09:12:59;;;;;;;24.03;12.23;;;4.80;99.90;;;;;;5079677;28;20102;-69
2023/03/06 09:15:25;;;;;;;27.73;13.00;;;4.80;99.90;;;;;;5084562;28;20128;-69
2023/03/06 09:17:50;;;;;;;27.27;12.32;;;4.80;99.90;;;;;;5070076;28;20088;-69
2023/03/06 09:20:17;;;;;;;25.77;12.90;;;5.00;99.90;;;;;;5087050;28;20032;-68
2023/03/06 09:22:44;;;;;;;26.77;12.73;;;4.90;99.90;;;;;;5084210;28;20028;-69
2023/03/06 09:25:12;;;;;;;27.65;14.20;;;5.00;99.90;;;;;;5085534;28;20560;-68
2023/03/06 09:27:38;;;;;;;25.92;13.52;;;5.00;99.90;;;;;;5081848;28;20043;-69
2023/03/06 09:30:06;;;;;;;25.67;12.20;;;5.10;99.90;;;;;;5078074;28;20479;-69
2023/03/06 09:32:31;;;;;;;21.95;12.30;;;5.10;99.90;;;;;;5077712;28;20039;-69
2023/03/06 09:34:57;;;;;;;25.37;13.00;;;5.10;99.90;;;;;;5059569;28;20025;-69
2023/03/06 09:37:23;;;;;;;27.02;13.43;;;5.10;99.90;;;;;;5075951;28;20029;-69
2023/03/06 09:39:48;;;;;;;25.97;12.43;;;5.00;99.90;;;;;;5056883;28;20028;-69
2023/03/06 09:42:22;;;;;;;21.17;11.57;;;5.10;99.90;;;;;;5076229;28;20032;-69
2023/03/06 09:44:54;;;;;;;24.23;12.50;;;5.10;99.90;;;;;;5078108;28;20013;-70
2023/03/06 09:47:27;;;;;;;24.27;12.35;;;5.10;99.90;;;;;;5060171;28;20025;-69
2023/03/06 09:50:29;;;;;;;22.27;12.90;;;5.30;99.90;;;;;;5079242;28;20024;-69
2023/03/06 09:52:57;;;;;;;25.95;12.93;;;5.30;99.90;;;;;;5079514;28;20040;-68
2023/03/06 09:55:30;;;;;;;25.42;11.82;;;5.30;99.90;;;;;;5061437;28;20098;-68
2023/03/06 09:58:17;;;;;;;24.70;12.73;;;5.30;99.90;;;;;;5080162;28;20027;-68
2023/03/06 10:01:03;;;;;;;23.77;11.68;;;5.50;99.90;;;;;;5079937;28;20031;-68
2023/03/06 10:03:58;;;;;;;22.65;12.32;;;5.50;99.90;;;;;;5080844;28;20040;-69
2023/03/06 10:06:31;;;;;;;25.95;12.32;;;5.50;99.90;;;;;;5079345;28;20062;-69
2023/03/06 10:09:06;;;;;;;21.20;11.30;;;5.50;99.90;;;;;;5078920;28;20025;-69
2023/03/06 10:11:44;;;;;;;25.05;11.30;;;5.50;99.90;;;;;;5079982;28;20036;-68
2023/03/06 10:14:12;;;;;;;23.77;11.98;;;5.60;99.90;;;;;;5078809;28;20028;-69
2023/03/06 10:16:39;;;;;;;25.30;12.32;;;5.60;99.90;;;;;;5079229;28;20120;-69
2023/03/06 10:19:14;;;;;;;24.98;11.00;;;5.60;99.90;;;;;;5080569;28;20103;-70
2023/03/06 10:22:00;;;;;;;22.67;11.68;;;5.60;99.90;;;;;;5078633;28;20039;-69
2023/03/06 10:24:35;;;;;;;21.60;11.90;;;5.60;99.90;;;;;;5080444;28;20024;-69
2023/03/06 10:27:39;;;;;;;23.83;11.32;;;5.90;99.90;;;;;;5071671;28;20088;-69
2023/03/06 10:30:37;;;;;;;22.45;11.10;;;6.10;99.90;;;;;;5061318;28;20029;-69
2023/03/06 10:33:33;;;;;;;21.00;10.93;;;6.30;99.90;;;;;;5083966;28;20074;-69
2023/03/06 10:35:59;;;;;;;20.42;10.98;;;6.50;99.90;;;;;;5085728;28;20047;-69
2023/03/06 10:38:36;;;;;;;20.50;11.20;;;6.70;99.90;;;;;;5089152;28;20032;-69
2023/03/06 10:41:10;;;;;;;19.27;10.45;;;6.80;99.90;;;;;;5083760;28;20021;-69
2023/03/06 10:43:41;;;;;;;19.48;11.05;;;6.90;99.90;;;;;;5079560;28;20043;-69
2023/03/06 10:46:09;;;;;;;21.48;11.18;;;7.00;99.90;;;;;;5064304;28;20024;-69
2023/03/06 10:48:37;;;;;;;21.45;10.85;;;7.00;99.90;;;;;;5062199;28;20021;-69
2023/03/06 10:51:16;;;;;;;18.73;10.50;;;6.90;99.90;;;;;;5083980;28;20040;-69
2023/03/06 10:53:57;;;;;;;19.65;10.75;;;6.90;99.90;;;;;;5086591;28;20040;-69
2023/03/06 10:56:37;;;;;;;23.27;10.40;;;6.80;99.90;;;;;;5085025;28;20028;-69
2023/03/06 10:59:17;;;;;;;20.30;9.90;;;6.70;99.90;;;;;;5083926;28;20024;-68
2023/03/06 11:01:48;;;;;;;16.85;9.90;;;6.70;99.90;;;;;;5081485;28;20527;-70
2023/03/06 11:04:24;;;;;;;18.40;9.95;;;6.80;99.90;;;;;;5085542;28;20029;-69
2023/03/06 11:07:16;;;;;;;17.70;9.77;;;7.00;99.90;;;;;;5077300;28;20021;-69
2023/03/06 11:09:55;;;;;;;16.60;9.93;;;7.10;99.90;;;;;;5058201;28;20028;-69
2023/03/06 11:12:35;;;;;;;19.73;10.57;;;7.10;99.90;;;;;;5075707;28;20103;-67
2023/03/06 11:15:22;;;;;;;16.98;9.55;;;7.30;99.90;;;;;;5057248;28;20492;-68
2023/03/06 11:17:55;;;;;;;19.33;11.02;;;7.50;99.90;;;;;;5076879;28;20020;-69
2023/03/06 11:20:31;;;;;;;18.35;9.75;;;7.50;99.90;;;;;;5076879;28;20473;-69
2023/03/06 11:23:17;;;;;;;17.30;9.80;;;7.40;99.90;;;;;;5064924;28;20063;-69
2023/03/06 11:25:56;;;;;;;19.42;10.15;;;7.70;99.90;;;;;;5083578;28;20063;-69
2023/03/06 11:28:35;;;;;;;17.48;9.57;;;7.70;99.90;;;;;;5079491;28;20016;-69
2023/03/06 11:31:05;;;;;;;17.88;10.00;;;7.80;99.90;;;;;;5061103;28;20063;-69
2023/03/06 11:33:49;;;;;;;16.80;9.70;;;8.00;99.90;;;;;;5060618;28;20374;-69
2023/03/06 11:36:23;;;;;;;23.17;10.20;;;8.10;99.90;;;;;;5077178;28;20023;-69
2023/03/06 11:38:52;;;;;;;17.77;10.05;;;8.10;99.90;;;;;;5060115;28;20029;-68
2023/03/06 11:41:41;;;;;;;18.98;10.38;;;8.10;99.90;;;;;;5079293;28;20024;-69
2023/03/06 11:44:31;;;;;;;16.40;9.85;;;8.00;99.90;;;;;;5081614;28;20025;-69
2023/03/06 11:47:26;;;;;;;14.48;8.98;;;8.20;99.90;;;;;;5082137;28;20024;-68
2023/03/06 11:50:04;;;;;;;16.92;10.05;;;8.20;99.90;;;;;;5062906;28;20043;-69
2023/03/06 11:52:56;;;;;;;15.82;9.32;;;8.20;99.90;;;;;;5080442;28;20032;-68
2023/03/06 11:55:52;;;;;;;18.98;10.48;;;8.10;99.90;;;;;;5075345;28;20097;-68
2023/03/06 11:58:39;;;;;;;19.60;10.65;;;8.00;99.90;;;;;;5076253;28;20036;-68
2023/03/06 12:01:19;;;;;;;16.35;9.57;;;7.90;99.90;;;;;;5075267;28;20027;-68
2023/03/06 12:04:03;;;;;;;18.55;10.27;;;7.90;99.90;;;;;;5075364;28;20457;-69
2023/03/06 12:06:52;;;;;;;19.42;10.57;;;8.00;99.90;;;;;;5076022;28;20086;-69
2023/03/06 12:09:47;;;;;;;17.50;9.82;;;7.90;99.90;;;;;;5075101;28;20101;-71
2023/03/06 12:12:19;;;;;;;17.80;10.50;;;7.70;99.90;;;;;;5037667;28;20036;-70
2023/03/06 12:15:24;;;;;;;16.10;10.00;;;7.60;99.90;;;;;;5061808;28;20024;-70
2023/03/06 12:18:23;;;;;;;14.90;9.07;;;7.70;99.90;;;;;;5056668;28;20074;-70
2023/03/06 12:21:26;;;;;;;19.75;9.95;;;7.70;99.90;;;;;;5055150;28;20024;-69
2023/03/06 12:24:19;;;;;;;16.77;9.40;;;7.70;99.90;;;;;;5073745;28;20028;-70
2023/03/06 12:26:59;;;;;;;21.52;10.73;;;7.70;99.90;;;;;;5056013;28;20362;-71
2023/03/06 12:30:22;;;;;;;16.13;9.38;;;7.90;99.90;;;;;;5073735;28;20099;-71
2023/03/06 12:33:16;;;;;;;16.40;9.27;;;7.90;99.90;;;;;;4982928;28;20049;-68
2023/03/06 12:35:50;;;;;;;16.15;9.48;;;7.80;99.90;;;;;;4985821;28;20026;-68
2023/03/06 12:38:40;;;;;;;15.20;9.02;;;7.90;99.90;;;;;;5002613;28;20026;-68
2023/03/06 12:41:21;;;;;;;18.40;9.77;;;7.80;99.90;;;;;;5000120;28;20066;-69
2023/03/06 12:43:53;;;;;;;15.45;9.00;;;7.60;99.90;;;;;;5022827;28;20141;-68
2023/03/06 12:46:24;;;;;;;18.63;10.50;;;7.50;99.90;;;;;;5022819;28;20022;-68
2023/03/06 12:49:04;;;;;;;20.17;9.40;;;7.30;99.90;;;;;;5022274;28;20101;-69
2023/03/06 12:51:31;;;;;;;15.20;8.90;;;7.20;99.90;;;;;;5016232;28;20048;-69
2023/03/06 12:53:58;;;;;;;17.17;9.57;;;7.10;99.90;;;;;;5020363;28;20034;-68